createdAt,value
2018-07-19T00:03:55.707Z,4.93
2018-07-19T00:08:59.306Z,4.90
2018-07-19T00:14:03.582Z,5.37
2018-07-19T00:19:07.203Z,5.10
2018-07-19T00:24:11.073Z,5.10
2018-07-19T00:29:14.635Z,4.90
2018-07-19T00:34:18.553Z,4.93
2018-07-19T00:39:22.520Z,5.60
2018-07-19T00:44:26.561Z,5.03
2018-07-19T00:49:30.148Z,5.13
2018-07-19T00:54:33.972Z,5.20
2018-07-19T00:59:38.452Z,4.93
2018-07-19T01:04:42.188Z,4.90
2018-07-19T01:09:47.358Z,5.03
2018-07-19T01:14:51.070Z,4.53
2018-07-19T01:19:54.640Z,4.97
2018-07-19T01:24:58.800Z,4.57
2018-07-19T01:30:02.894Z,4.27
2018-07-19T01:35:07.768Z,5.40
2018-07-19T01:45:26.553Z,4.70
2018-07-19T01:50:30.266Z,5.10
2018-07-19T01:55:33.826Z,4.83
2018-07-19T02:00:37.931Z,4.60
2018-07-19T02:05:41.511Z,4.73
2018-07-19T02:10:45.096Z,5.17
2018-07-19T02:15:48.682Z,4.20
2018-07-19T02:20:52.297Z,4.30
2018-07-19T02:25:55.859Z,4.70
2018-07-19T02:30:59.829Z,5.13
2018-07-19T02:36:03.650Z,4.67
2018-07-19T02:41:09.990Z,4.43
2018-07-19T02:46:13.596Z,5.13
2018-07-19T02:51:17.540Z,4.20
2018-07-19T02:56:21.142Z,4.87
2018-07-19T03:01:25.514Z,4.70
2018-07-19T03:06:29.924Z,5.03
2018-07-19T03:11:35.187Z,4.57
2018-07-19T03:16:38.766Z,4.20
2018-07-19T03:21:43.972Z,4.37
2018-07-19T03:26:48.854Z,4.13
2018-07-19T03:31:52.479Z,4.80
2018-07-19T03:36:56.175Z,4.57
2018-07-19T03:41:59.745Z,4.63
2018-07-19T03:47:03.302Z,4.47
2018-07-19T03:52:06.915Z,3.90
2018-07-19T03:57:11.339Z,4.47
2018-07-19T04:02:15.532Z,4.57
2018-07-19T04:07:19.084Z,4.30
2018-07-19T04:12:22.676Z,4.63
2018-07-19T04:17:26.345Z,4.70
2018-07-19T04:22:29.878Z,4.20
2018-07-19T04:27:33.427Z,4.10
2018-07-19T04:32:36.999Z,4.40
2018-07-19T04:37:40.606Z,4.80
2018-07-19T04:42:44.216Z,4.40
2018-07-19T04:47:47.809Z,4.40
2018-07-19T04:52:51.368Z,4.27
2018-07-19T04:57:54.913Z,4.73
2018-07-19T05:02:59.200Z,4.57
2018-07-19T05:08:02.966Z,5.20
2018-07-19T05:13:06.511Z,4.60
2018-07-19T05:18:10.048Z,4.40
2018-07-19T05:23:13.664Z,4.87
2018-07-19T05:28:18.510Z,4.73
2018-07-19T05:33:22.054Z,5.03
2018-07-19T05:38:25.696Z,4.30
2018-07-19T05:43:29.324Z,4.80
2018-07-19T05:48:33.319Z,4.97
2018-07-19T05:53:36.964Z,5.20
2018-07-19T05:58:41.053Z,4.50
2018-07-19T06:03:44.669Z,4.63
2018-07-19T06:08:48.275Z,4.67
2018-07-19T06:13:51.932Z,4.53
2018-07-19T06:18:55.495Z,4.00
2018-07-19T06:23:59.068Z,4.30
2018-07-19T06:29:02.674Z,4.47
2018-07-19T06:34:06.578Z,4.07
2018-07-19T06:39:10.950Z,4.37
2018-07-19T06:44:14.545Z,3.83
2018-07-19T06:49:18.664Z,4.40
2018-07-19T06:54:22.496Z,3.40
2018-07-19T06:59:26.575Z,4.60
2018-07-19T07:04:31.535Z,4.07
2018-07-19T07:09:35.514Z,3.93
2018-07-19T07:14:39.167Z,6.50
2018-07-19T07:19:56.631Z,5.27
2018-07-19T07:25:01.948Z,4.33
2018-07-19T07:30:06.271Z,4.53
2018-07-19T07:35:10.212Z,4.30
2018-07-19T07:40:13.814Z,4.93
2018-07-19T07:45:17.392Z,4.63
2018-07-19T07:50:20.979Z,4.77
2018-07-19T07:55:25.461Z,4.67
2018-07-19T08:00:29.058Z,4.60
2018-07-19T08:05:33.487Z,4.50
2018-07-19T08:10:37.135Z,4.80
2018-07-19T08:15:40.751Z,4.30
2018-07-19T08:20:44.588Z,5.27
2018-07-19T08:25:49.025Z,4.47
2018-07-19T08:30:52.541Z,4.23
2018-07-19T08:35:56.216Z,4.87
2018-07-19T08:41:00.577Z,4.63
2018-07-19T08:46:04.370Z,5.10
2018-07-19T08:51:08.657Z,4.43
2018-07-19T08:56:11.883Z,4.70
2018-07-19T09:01:15.564Z,4.60
2018-07-19T09:06:19.113Z,5.10
2018-07-19T09:11:22.677Z,4.57
2018-07-19T09:16:26.222Z,4.97
2018-07-19T09:21:29.855Z,4.80
2018-07-19T09:26:33.504Z,4.53
2018-07-19T09:31:37.778Z,4.87
2018-07-19T09:36:41.413Z,4.00
2018-07-19T09:41:45.763Z,4.90
2018-07-19T09:46:49.378Z,4.93
2018-07-19T09:51:52.939Z,4.77
2018-07-19T09:56:57.142Z,4.77
2018-07-19T10:02:00.709Z,5.30
2018-07-19T10:07:06.229Z,5.00
2018-07-19T10:12:10.671Z,5.30
2018-07-19T10:17:16.122Z,5.40
2018-07-19T10:22:20.450Z,5.30
2018-07-19T10:27:28.512Z,4.77
2018-07-19T10:32:32.148Z,4.40
2018-07-19T10:37:35.701Z,5.10
2018-07-19T10:42:39.316Z,4.47
2018-07-19T10:47:42.865Z,4.80
2018-07-19T10:52:46.856Z,4.23
2018-07-19T10:57:50.696Z,4.70
2018-07-19T11:02:54.368Z,4.30
2018-07-19T11:07:58.215Z,4.80
2018-07-19T11:13:02.076Z,5.27
2018-07-19T11:18:05.685Z,5.13
2018-07-19T11:23:09.987Z,4.40
2018-07-19T11:28:14.118Z,4.80
2018-07-19T11:33:18.385Z,5.47
2018-07-19T11:38:22.267Z,4.90
2018-07-19T11:43:29.609Z,5.13
2018-07-19T11:48:33.182Z,5.33
2018-07-19T11:53:37.023Z,4.70
2018-07-19T11:58:40.967Z,4.43
2018-07-19T12:03:44.924Z,4.50
2018-07-19T12:08:48.465Z,4.07
2018-07-19T12:13:51.986Z,4.23
2018-07-19T12:18:55.567Z,4.67
2018-07-19T12:23:59.124Z,4.23
2018-07-19T12:29:02.820Z,4.33
2018-07-19T12:34:06.379Z,4.30
2018-07-19T12:39:11.394Z,4.27
2018-07-19T12:44:15.003Z,4.33
2018-07-19T12:49:18.569Z,4.33
2018-07-19T12:54:23.719Z,4.07
2018-07-19T12:59:29.150Z,4.47
2018-07-19T13:04:32.754Z,4.17
2018-07-19T13:09:38.166Z,4.00
2018-07-19T13:14:41.754Z,3.90
2018-07-19T13:19:45.839Z,3.70
2018-07-19T13:24:49.495Z,3.93
2018-07-19T13:29:54.042Z,3.90
2018-07-19T13:34:57.620Z,4.40
2018-07-19T13:40:01.672Z,4.00
2018-07-19T13:45:05.289Z,3.90
2018-07-19T13:50:08.931Z,3.90
2018-07-19T13:55:12.539Z,4.03
2018-07-19T14:00:16.122Z,4.13
2018-07-19T14:05:22.737Z,4.07
2018-07-19T14:10:26.777Z,4.30
2018-07-19T14:15:30.335Z,4.23
2018-07-19T14:20:33.979Z,4.10
2018-07-19T14:25:37.773Z,4.07
2018-07-19T14:30:41.467Z,4.07
2018-07-19T14:35:46.769Z,3.87
2018-07-19T14:40:51.004Z,3.80
2018-07-19T14:45:56.480Z,3.33
2018-07-19T14:51:00.097Z,3.43
2018-07-19T14:56:04.303Z,3.30
2018-07-19T15:01:08.875Z,3.30
2018-07-19T15:06:12.186Z,3.50
2018-07-19T15:11:15.815Z,4.30
2018-07-19T15:16:19.576Z,3.70
2018-07-19T15:21:23.491Z,3.70
2018-07-19T15:26:27.146Z,3.50
2018-07-19T15:31:31.271Z,3.57
2018-07-19T15:36:35.414Z,4.50
2018-07-19T15:41:40.007Z,3.20
2018-07-19T15:46:43.867Z,5.67
2018-07-19T15:51:47.742Z,3.77
2018-07-19T15:56:51.310Z,3.60
2018-07-19T16:01:55.403Z,3.40
2018-07-19T16:06:59.466Z,4.10
2018-07-19T16:12:03.026Z,3.27
2018-07-19T16:17:07.150Z,3.63
2018-07-19T16:22:11.338Z,3.97
2018-07-19T16:27:14.909Z,3.80
2018-07-19T16:32:18.465Z,3.33
2018-07-19T16:37:22.541Z,3.80
2018-07-19T16:42:26.628Z,4.10
2018-07-19T16:47:30.183Z,3.50
2018-07-19T16:52:34.503Z,4.00
2018-07-19T16:57:37.724Z,3.67
2018-07-19T17:02:47.527Z,4.10
2018-07-19T17:07:51.099Z,4.40
2018-07-19T17:12:54.385Z,4.70
2018-07-19T17:17:57.962Z,4.23
2018-07-19T17:23:01.831Z,6.70
2018-07-19T17:28:05.628Z,4.53
2018-07-19T17:33:09.675Z,6.13
2018-07-19T17:38:13.314Z,4.20
2018-07-19T17:43:17.039Z,3.90
2018-07-19T17:48:21.322Z,4.20
2018-07-19T17:53:25.331Z,7.50
2018-07-19T17:58:28.887Z,5.10
2018-07-19T18:03:32.512Z,3.60
2018-07-19T18:08:36.034Z,3.80
2018-07-19T18:18:54.935Z,4.10
2018-07-19T18:23:58.882Z,4.93
2018-07-19T18:29:02.692Z,6.93
2018-07-19T18:34:06.463Z,6.30
2018-07-19T18:39:11.822Z,6.53
2018-07-19T18:44:15.699Z,4.90
2018-07-19T18:49:19.254Z,5.43
2018-07-19T18:54:23.070Z,5.30
2018-07-19T18:59:26.654Z,4.80
2018-07-19T19:04:30.963Z,5.10
2018-07-19T19:09:34.569Z,5.07
2018-07-19T19:14:38.144Z,4.57
2018-07-19T19:19:41.765Z,4.93
2018-07-19T19:24:45.534Z,5.57
2018-07-19T19:29:49.099Z,5.20
2018-07-19T19:34:53.491Z,5.00
2018-07-19T19:39:57.411Z,5.67
2018-07-19T19:45:07.767Z,4.90
2018-07-19T19:50:11.400Z,5.10
2018-07-19T19:55:15.537Z,4.70
2018-07-19T20:00:19.205Z,4.73
2018-07-19T20:05:22.918Z,4.90
2018-07-19T20:10:27.002Z,4.50
2018-07-19T20:15:31.615Z,5.23
2018-07-19T20:20:35.257Z,5.57
2018-07-19T20:25:39.026Z,5.20
2018-07-19T20:30:42.617Z,4.83
2018-07-19T20:35:46.963Z,4.57
2018-07-19T20:40:51.055Z,5.30
2018-07-19T20:45:54.642Z,5.10
2018-07-19T20:50:58.424Z,5.03
2018-07-19T20:56:02.015Z,5.40
2018-07-19T21:01:05.991Z,5.20
2018-07-19T21:06:09.712Z,5.50
2018-07-19T21:11:13.282Z,5.30
2018-07-19T21:16:16.850Z,5.40
2018-07-19T21:21:20.395Z,5.70
2018-07-19T21:26:23.969Z,5.20
2018-07-19T21:31:29.105Z,6.37
2018-07-19T21:36:32.810Z,6.00
2018-07-19T21:41:36.640Z,5.17
2018-07-19T21:46:42.053Z,5.10
2018-07-19T21:51:45.624Z,5.03
2018-07-19T21:56:49.194Z,5.20
2018-07-19T22:01:56.556Z,5.60
2018-07-19T22:07:00.476Z,5.30
2018-07-19T22:12:04.057Z,5.53
2018-07-19T22:17:08.632Z,4.97
2018-07-19T22:22:12.615Z,6.30
2018-07-19T22:27:16.466Z,6.07
2018-07-19T22:32:20.028Z,5.97
2018-07-19T22:37:23.650Z,5.80
2018-07-19T22:42:27.363Z,5.10
2018-07-19T22:47:30.943Z,5.73
2018-07-19T22:52:34.534Z,5.00
2018-07-19T22:57:39.495Z,5.83
2018-07-19T23:02:43.058Z,5.80
2018-07-19T23:07:47.278Z,6.33
2018-07-19T23:12:50.906Z,5.90
2018-07-19T23:17:54.478Z,5.80
2018-07-19T23:22:59.273Z,6.00
2018-07-19T23:28:02.934Z,5.90
2018-07-19T23:33:07.100Z,5.60
2018-07-19T23:38:20.649Z,6.33
2018-07-19T23:43:27.360Z,6.43
2018-07-19T23:48:31.431Z,6.20
2018-07-19T23:53:35.828Z,6.10
2018-07-19T23:58:39.686Z,6.60
